Harmontown, Mississippi
Current Conditions -  °F | °C
As of 2:35 PM on Saturday 25 Oct 2014 (Local Time) from KUOX Reporting Station
Clear Clear  
Wind Chill: 77°   Ceiling: Unl
Heat Index: 79°   Visibility: 10mi
Dew Point: 59°   Wind: 7mph
Humidity: 54%   Direction: 270°W
Pressure: 30.07"   Gusts: NA
Location:  34.5041°N, 89.8909°W
Report Text: KUOX 251935Z AUTO 27006KT 10SM CLR 25/15 A3007 RMK AO2 PWINO PNO
Loading
Personal Weather Stations






























Interactive Weather Map
Tropical Storm Tracking
New forecast layout! Learn more

10-Day Weather Forecast

Advertisements
Track Severe Weather on mobile